sensor_id;sensor_type;location;lat;lon;timestamp;temperature;humidity
35746;DHT22;21870;42.812;74.628;2022-11-24T00:01:07;8.10;99.90
35746;DHT22;21870;42.812;74.628;2022-11-24T00:03:34;8.00;99.90
35746;DHT22;21870;42.812;74.628;2022-11-24T00:06:11;7.90;99.90
35746;DHT22;21870;42.812;74.628;2022-11-24T00:08:40;7.80;99.90
35746;DHT22;21870;42.812;74.628;2022-11-24T00:11:10;7.80;99.90
35746;DHT22;21870;42.812;74.628;2022-11-24T00:13:36;7.80;99.90
35746;DHT22;21870;42.812;74.628;2022-11-24T00:16:33;7.90;99.90
35746;DHT22;21870;42.812;74.628;2022-11-24T00:19:01;7.90;99.90
35746;DHT22;21870;42.812;74.628;2022-11-24T00:21:29;7.90;99.90
35746;DHT22;21870;42.812;74.628;2022-11-24T00:23:56;7.90;99.90
35746;DHT22;21870;42.812;74.628;2022-11-24T00:26:30;7.90;99.90
35746;DHT22;21870;42.812;74.628;2022-11-24T00:29:00;7.90;99.90
35746;DHT22;21870;42.812;74.628;2022-11-24T00:31:32;7.90;99.90
35746;DHT22;21870;42.812;74.628;2022-11-24T00:34:06;7.90;99.90
35746;DHT22;21870;42.812;74.628;2022-11-24T00:36:33;8.00;99.90
35746;DHT22;21870;42.812;74.628;2022-11-24T00:39:11;8.10;99.90
35746;DHT22;21870;42.812;74.628;2022-11-24T00:41:37;8.10;99.90
35746;DHT22;21870;42.812;74.628;2022-11-24T00:44:04;8.20;99.90
35746;DHT22;21870;42.812;74.628;2022-11-24T00:46:30;8.20;99.90
35746;DHT22;21870;42.812;74.628;2022-11-24T00:48:56;8.50;99.90
35746;DHT22;21870;42.812;74.628;2022-11-24T00:51:24;8.70;99.90
35746;DHT22;21870;42.812;74.628;2022-11-24T00:53:58;9.00;99.90
35746;DHT22;21870;42.812;74.628;2022-11-24T00:56:27;9.00;99.90
35746;DHT22;21870;42.812;74.628;2022-11-24T00:58:53;9.00;99.90
35746;DHT22;21870;42.812;74.628;2022-11-24T01:01:22;8.70;99.90
35746;DHT22;21870;42.812;74.628;2022-11-24T01:03:49;8.70;99.90
35746;DHT22;21870;42.812;74.628;2022-11-24T01:06:21;8.60;99.90
35746;DHT22;21870;42.812;74.628;2022-11-24T01:08:48;8.50;99.90
35746;DHT22;21870;42.812;74.628;2022-11-24T01:13:47;8.60;99.90
35746;DHT22;21870;42.812;74.628;2022-11-24T01:16:24;8.60;99.90
35746;DHT22;21870;42.812;74.628;2022-11-24T01:18:51;8.60;99.90
35746;DHT22;21870;42.812;74.628;2022-11-24T01:21:18;8.50;99.90
35746;DHT22;21870;42.812;74.628;2022-11-24T01:23:45;8.90;99.90
35746;DHT22;21870;42.812;74.628;2022-11-24T01:26:14;9.50;99.90
35746;DHT22;21870;42.812;74.628;2022-11-24T01:28:40;10.10;99.90
35746;DHT22;21870;42.812;74.628;2022-11-24T01:31:07;10.70;99.90
35746;DHT22;21870;42.812;74.628;2022-11-24T01:33:34;11.10;99.90
35746;DHT22;21870;42.812;74.628;2022-11-24T01:36:00;11.50;99.90
35746;DHT22;21870;42.812;74.628;2022-11-24T01:38:27;11.70;99.90
35746;DHT22;21870;42.812;74.628;2022-11-24T01:43:28;11.80;99.90
35746;DHT22;21870;42.812;74.628;2022-11-24T01:45:55;11.70;99.90
35746;DHT22;21870;42.812;74.628;2022-11-24T01:48:29;11.80;99.90
35746;DHT22;21870;42.812;74.628;2022-11-24T01:51:09;11.90;99.90
35746;DHT22;21870;42.812;74.628;2022-11-24T01:53:36;11.70;99.90
35746;DHT22;21870;42.812;74.628;2022-11-24T01:56:04;11.80;99.90
35746;DHT22;21870;42.812;74.628;2022-11-24T01:58:33;11.60;99.90
35746;DHT22;21870;42.812;74.628;2022-11-24T02:01:00;11.40;99.90
35746;DHT22;21870;42.812;74.628;2022-11-24T02:03:30;11.20;99.90
35746;DHT22;21870;42.812;74.628;2022-11-24T02:06:03;11.20;99.90
35746;DHT22;21870;42.812;74.628;2022-11-24T02:08:42;11.10;99.90
35746;DHT22;21870;42.812;74.628;2022-11-24T02:11:09;11.00;99.90
35746;DHT22;21870;42.812;74.628;2022-11-24T02:13:37;10.80;99.90
35746;DHT22;21870;42.812;74.628;2022-11-24T02:16:06;10.70;99.90
35746;DHT22;21870;42.812;74.628;2022-11-24T02:18:33;10.70;99.90
35746;DHT22;21870;42.812;74.628;2022-11-24T02:20:59;10.60;99.90
35746;DHT22;21870;42.812;74.628;2022-11-24T02:23:42;10.50;99.90
35746;DHT22;21870;42.812;74.628;2022-11-24T02:28:36;10.10;99.90
35746;DHT22;21870;42.812;74.628;2022-11-24T02:31:04;9.90;99.90
35746;DHT22;21870;42.812;74.628;2022-11-24T02:33:31;9.80;99.90
35746;DHT22;21870;42.812;74.628;2022-11-24T02:35:58;9.80;99.90
35746;DHT22;21870;42.812;74.628;2022-11-24T02:38:32;9.80;99.90
35746;DHT22;21870;42.812;74.628;2022-11-24T02:41:05;9.80;99.90
35746;DHT22;21870;42.812;74.628;2022-11-24T02:43:36;9.80;99.90
35746;DHT22;21870;42.812;74.628;2022-11-24T02:46:03;9.70;99.90
35746;DHT22;21870;42.812;74.628;2022-11-24T02:48:29;9.60;99.90
35746;DHT22;21870;42.812;74.628;2022-11-24T02:50:56;9.60;99.90
35746;DHT22;21870;42.812;74.628;2022-11-24T02:53:22;9.50;99.90
35746;DHT22;21870;42.812;74.628;2022-11-24T02:55:48;9.50;99.90
35746;DHT22;21870;42.812;74.628;2022-11-24T02:58:14;9.60;99.90
35746;DHT22;21870;42.812;74.628;2022-11-24T03:00:40;9.50;99.90
35746;DHT22;21870;42.812;74.628;2022-11-24T03:03:06;9.50;99.90
35746;DHT22;21870;42.812;74.628;2022-11-24T03:05:32;9.60;99.90
35746;DHT22;21870;42.812;74.628;2022-11-24T03:07:59;9.70;99.90
35746;DHT22;21870;42.812;74.628;2022-11-24T03:10:25;9.70;99.90
35746;DHT22;21870;42.812;74.628;2022-11-24T03:12:51;9.80;99.90
35746;DHT22;21870;42.812;74.628;2022-11-24T03:15:17;9.80;99.90
35746;DHT22;21870;42.812;74.628;2022-11-24T03:17:43;9.90;99.90
35746;DHT22;21870;42.812;74.628;2022-11-24T03:20:10;10.10;99.90
35746;DHT22;21870;42.812;74.628;2022-11-24T03:22:36;10.20;99.90
35746;DHT22;21870;42.812;74.628;2022-11-24T03:25:02;10.30;99.90
35746;DHT22;21870;42.812;74.628;2022-11-24T03:27:30;10.40;99.90
35746;DHT22;21870;42.812;74.628;2022-11-24T03:29:56;10.50;99.90
35746;DHT22;21870;42.812;74.628;2022-11-24T03:32:22;10.60;99.90
35746;DHT22;21870;42.812;74.628;2022-11-24T03:34:48;10.60;99.90
35746;DHT22;21870;42.812;74.628;2022-11-24T03:37:14;10.60;99.90
35746;DHT22;21870;42.812;74.628;2022-11-24T03:39:40;10.70;99.90
35746;DHT22;21870;42.812;74.628;2022-11-24T03:42:09;10.80;99.90
35746;DHT22;21870;42.812;74.628;2022-11-24T03:44:36;10.70;99.90
35746;DHT22;21870;42.812;74.628;2022-11-24T03:47:02;10.80;99.90
35746;DHT22;21870;42.812;74.628;2022-11-24T03:49:28;10.90;99.90
35746;DHT22;21870;42.812;74.628;2022-11-24T03:51:54;11.10;99.90
35746;DHT22;21870;42.812;74.628;2022-11-24T03:54:20;11.10;99.90
35746;DHT22;21870;42.812;74.628;2022-11-24T03:56:46;11.30;99.90
35746;DHT22;21870;42.812;74.628;2022-11-24T03:59:13;11.40;99.90
35746;DHT22;21870;42.812;74.628;2022-11-24T04:01:39;11.50;99.90
35746;DHT22;21870;42.812;74.628;2022-11-24T04:04:05;11.60;99.90
35746;DHT22;21870;42.812;74.628;2022-11-24T04:06:31;11.70;99.90
35746;DHT22;21870;42.812;74.628;2022-11-24T04:08:59;11.80;99.90
35746;DHT22;21870;42.812;74.628;2022-11-24T04:11:26;11.90;99.90
35746;DHT22;21870;42.812;74.628;2022-11-24T04:14:10;12.00;99.90
35746;DHT22;21870;42.812;74.628;2022-11-24T04:16:36;12.10;99.90
35746;DHT22;21870;42.812;74.628;2022-11-24T04:19:02;12.30;99.90
35746;DHT22;21870;42.812;74.628;2022-11-24T04:21:29;12.40;99.90
35746;DHT22;21870;42.812;74.628;2022-11-24T04:23:55;12.50;99.90
35746;DHT22;21870;42.812;74.628;2022-11-24T04:26:21;12.70;99.90
35746;DHT22;21870;42.812;74.628;2022-11-24T04:28:47;12.80;99.90
35746;DHT22;21870;42.812;74.628;2022-11-24T04:31:13;13.10;99.90
35746;DHT22;21870;42.812;74.628;2022-11-24T04:33:39;13.20;99.90
35746;DHT22;21870;42.812;74.628;2022-11-24T04:36:05;13.30;99.90
35746;DHT22;21870;42.812;74.628;2022-11-24T04:38:31;13.50;99.90
35746;DHT22;21870;42.812;74.628;2022-11-24T04:41:01;13.60;99.90
35746;DHT22;21870;42.812;74.628;2022-11-24T04:43:29;13.60;99.90
35746;DHT22;21870;42.812;74.628;2022-11-24T04:45:55;13.60;99.90
35746;DHT22;21870;42.812;74.628;2022-11-24T04:48:21;13.60;99.90
35746;DHT22;21870;42.812;74.628;2022-11-24T04:50:47;13.60;99.90
35746;DHT22;21870;42.812;74.628;2022-11-24T04:53:13;13.50;99.90
35746;DHT22;21870;42.812;74.628;2022-11-24T04:55:40;13.50;99.90
35746;DHT22;21870;42.812;74.628;2022-11-24T04:58:08;13.40;99.90
35746;DHT22;21870;42.812;74.628;2022-11-24T05:00:35;13.40;99.90
35746;DHT22;21870;42.812;74.628;2022-11-24T05:03:01;13.40;99.90
35746;DHT22;21870;42.812;74.628;2022-11-24T05:05:27;13.50;99.90
35746;DHT22;21870;42.812;74.628;2022-11-24T05:07:53;13.50;99.90
35746;DHT22;21870;42.812;74.628;2022-11-24T05:10:19;13.60;99.90
35746;DHT22;21870;42.812;74.628;2022-11-24T05:13:10;13.70;99.90
35746;DHT22;21870;42.812;74.628;2022-11-24T05:15:38;13.80;99.90
35746;DHT22;21870;42.812;74.628;2022-11-24T05:18:10;13.70;99.90
35746;DHT22;21870;42.812;74.628;2022-11-24T05:20:37;13.70;99.90
35746;DHT22;21870;42.812;74.628;2022-11-24T05:23:04;13.60;99.90
35746;DHT22;21870;42.812;74.628;2022-11-24T05:25:32;13.70;99.90
35746;DHT22;21870;42.812;74.628;2022-11-24T05:28:00;13.70;99.90
35746;DHT22;21870;42.812;74.628;2022-11-24T05:30:27;13.70;99.90
35746;DHT22;21870;42.812;74.628;2022-11-24T05:32:53;13.80;99.90
35746;DHT22;21870;42.812;74.628;2022-11-24T05:35:19;13.90;99.90
35746;DHT22;21870;42.812;74.628;2022-11-24T05:37:46;14.10;99.90
35746;DHT22;21870;42.812;74.628;2022-11-24T05:40:13;14.40;99.90
35746;DHT22;21870;42.812;74.628;2022-11-24T05:42:39;14.60;99.90
35746;DHT22;21870;42.812;74.628;2022-11-24T05:45:06;14.60;99.90
35746;DHT22;21870;42.812;74.628;2022-11-24T05:47:34;14.60;99.90
35746;DHT22;21870;42.812;74.628;2022-11-24T05:50:00;14.60;99.90
35746;DHT22;21870;42.812;74.628;2022-11-24T05:52:26;14.70;99.90
35746;DHT22;21870;42.812;74.628;2022-11-24T05:54:52;14.70;99.90
35746;DHT22;21870;42.812;74.628;2022-11-24T05:57:18;14.70;99.90
35746;DHT22;21870;42.812;74.628;2022-11-24T05:59:44;14.70;99.90
35746;DHT22;21870;42.812;74.628;2022-11-24T06:02:11;14.60;99.90
35746;DHT22;21870;42.812;74.628;2022-11-24T06:04:37;14.50;99.90
35746;DHT22;21870;42.812;74.628;2022-11-24T06:07:05;14.60;99.90
35746;DHT22;21870;42.812;74.628;2022-11-24T06:09:34;14.60;99.90
35746;DHT22;21870;42.812;74.628;2022-11-24T06:12:00;14.70;99.90
35746;DHT22;21870;42.812;74.628;2022-11-24T06:14:26;14.70;99.90
35746;DHT22;21870;42.812;74.628;2022-11-24T06:16:52;14.90;99.90
35746;DHT22;21870;42.812;74.628;2022-11-24T06:19:18;14.90;99.90
35746;DHT22;21870;42.812;74.628;2022-11-24T06:21:44;15.10;99.90
35746;DHT22;21870;42.812;74.628;2022-11-24T06:24:13;15.20;99.90
35746;DHT22;21870;42.812;74.628;2022-11-24T06:26:40;15.30;99.90
35746;DHT22;21870;42.812;74.628;2022-11-24T06:29:06;15.30;99.90
35746;DHT22;21870;42.812;74.628;2022-11-24T06:31:33;15.30;99.90
35746;DHT22;21870;42.812;74.628;2022-11-24T06:33:59;15.40;99.90
35746;DHT22;21870;42.812;74.628;2022-11-24T06:36:26;15.40;99.90
35746;DHT22;21870;42.812;74.628;2022-11-24T06:38:52;15.60;99.90
35746;DHT22;21870;42.812;74.628;2022-11-24T06:41:19;15.60;99.90
35746;DHT22;21870;42.812;74.628;2022-11-24T06:43:45;15.70;99.90
35746;DHT22;21870;42.812;74.628;2022-11-24T06:46:12;15.70;99.90
35746;DHT22;21870;42.812;74.628;2022-11-24T06:48:38;15.60;99.90
35746;DHT22;21870;42.812;74.628;2022-11-24T06:51:07;15.70;99.90
35746;DHT22;21870;42.812;74.628;2022-11-24T06:53:35;15.70;99.90
35746;DHT22;21870;42.812;74.628;2022-11-24T06:56:07;15.70;99.90
35746;DHT22;21870;42.812;74.628;2022-11-24T06:58:34;15.70;99.90
35746;DHT22;21870;42.812;74.628;2022-11-24T07:01:00;15.70;99.90
35746;DHT22;21870;42.812;74.628;2022-11-24T07:03:26;15.70;99.90
35746;DHT22;21870;42.812;74.628;2022-11-24T07:05:58;15.80;99.90
35746;DHT22;21870;42.812;74.628;2022-11-24T07:08:25;15.70;99.90
35746;DHT22;21870;42.812;74.628;2022-11-24T07:10:51;15.70;99.90
35746;DHT22;21870;42.812;74.628;2022-11-24T07:13:20;15.90;99.90
35746;DHT22;21870;42.812;74.628;2022-11-24T07:15:46;16.00;99.90
35746;DHT22;21870;42.812;74.628;2022-11-24T07:18:13;16.30;99.90
35746;DHT22;21870;42.812;74.628;2022-11-24T07:20:39;16.40;99.90
35746;DHT22;21870;42.812;74.628;2022-11-24T07:23:05;16.60;99.90
35746;DHT22;21870;42.812;74.628;2022-11-24T07:25:31;16.80;99.90
35746;DHT22;21870;42.812;74.628;2022-11-24T07:27:58;16.90;99.90
35746;DHT22;21870;42.812;74.628;2022-11-24T07:30:26;17.10;99.90
35746;DHT22;21870;42.812;74.628;2022-11-24T07:33:02;17.30;99.90
35746;DHT22;21870;42.812;74.628;2022-11-24T07:35:28;17.40;99.90
35746;DHT22;21870;42.812;74.628;2022-11-24T07:37:56;17.50;99.90
35746;DHT22;21870;42.812;74.628;2022-11-24T07:40:23;17.60;99.90
35746;DHT22;21870;42.812;74.628;2022-11-24T07:42:49;17.70;99.90
35746;DHT22;21870;42.812;74.628;2022-11-24T07:45:15;17.80;99.90
35746;DHT22;21870;42.812;74.628;2022-11-24T07:47:41;18.00;99.90
35746;DHT22;21870;42.812;74.628;2022-11-24T07:50:08;18.20;99.90
35746;DHT22;21870;42.812;74.628;2022-11-24T07:52:35;18.30;99.90
35746;DHT22;21870;42.812;74.628;2022-11-24T07:55:02;18.50;99.90
35746;DHT22;21870;42.812;74.628;2022-11-24T07:57:28;19.00;99.90
35746;DHT22;21870;42.812;74.628;2022-11-24T07:59:55;19.50;99.90
35746;DHT22;21870;42.812;74.628;2022-11-24T08:02:21;19.80;96.00
35746;DHT22;21870;42.812;74.628;2022-11-24T08:04:47;20.20;94.70
35746;DHT22;21870;42.812;74.628;2022-11-24T08:07:13;20.40;93.20
35746;DHT22;21870;42.812;74.628;2022-11-24T08:09:39;20.60;92.10
35746;DHT22;21870;42.812;74.628;2022-11-24T08:12:05;20.70;92.30
35746;DHT22;21870;42.812;74.628;2022-11-24T08:14:32;21.00;92.10
35746;DHT22;21870;42.812;74.628;2022-11-24T08:16:58;21.40;91.50
35746;DHT22;21870;42.812;74.628;2022-11-24T08:19:24;21.90;91.80
35746;DHT22;21870;42.812;74.628;2022-11-24T08:21:50;22.30;92.80
35746;DHT22;21870;42.812;74.628;2022-11-24T08:24:16;22.60;91.10
35746;DHT22;21870;42.812;74.628;2022-11-24T08:26:42;22.90;90.50
35746;DHT22;21870;42.812;74.628;2022-11-24T08:29:09;23.00;88.60
35746;DHT22;21870;42.812;74.628;2022-11-24T08:31:37;23.10;88.40
35746;DHT22;21870;42.812;74.628;2022-11-24T08:34:04;23.20;87.80
35746;DHT22;21870;42.812;74.628;2022-11-24T08:36:31;23.30;86.60
35746;DHT22;21870;42.812;74.628;2022-11-24T08:38:59;23.40;84.20
35746;DHT22;21870;42.812;74.628;2022-11-24T08:41:25;23.50;84.60
35746;DHT22;21870;42.812;74.628;2022-11-24T08:43:53;23.50;81.90
35746;DHT22;21870;42.812;74.628;2022-11-24T08:46:19;23.30;81.40
35746;DHT22;21870;42.812;74.628;2022-11-24T08:48:50;23.10;85.30
35746;DHT22;21870;42.812;74.628;2022-11-24T08:51:22;23.00;86.00
35746;DHT22;21870;42.812;74.628;2022-11-24T08:53:53;22.90;83.00
35746;DHT22;21870;42.812;74.628;2022-11-24T08:56:20;23.20;83.00
35746;DHT22;21870;42.812;74.628;2022-11-24T08:58:46;23.50;84.20
35746;DHT22;21870;42.812;74.628;2022-11-24T09:01:14;23.70;80.70
35746;DHT22;21870;42.812;74.628;2022-11-24T09:03:42;23.90;76.60
35746;DHT22;21870;42.812;74.628;2022-11-24T09:06:08;24.20;72.40
35746;DHT22;21870;42.812;74.628;2022-11-24T09:08:35;24.40;70.90
35746;DHT22;21870;42.812;74.628;2022-11-24T09:11:07;24.30;69.50
35746;DHT22;21870;42.812;74.628;2022-11-24T09:13:34;24.10;71.70
35746;DHT22;21870;42.812;74.628;2022-11-24T09:16:10;24.10;72.90
35746;DHT22;21870;42.812;74.628;2022-11-24T09:18:37;24.20;71.70
35746;DHT22;21870;42.812;74.628;2022-11-24T09:23:39;24.50;69.10
35746;DHT22;21870;42.812;74.628;2022-11-24T09:26:08;24.70;71.30
35746;DHT22;21870;42.812;74.628;2022-11-24T09:28:34;24.90;70.80
35746;DHT22;21870;42.812;74.628;2022-11-24T09:31:02;24.80;69.10
35746;DHT22;21870;42.812;74.628;2022-11-24T09:33:28;24.80;70.60
35746;DHT22;21870;42.812;74.628;2022-11-24T09:35:54;24.80;69.50
35746;DHT22;21870;42.812;74.628;2022-11-24T09:38:20;24.70;69.10
35746;DHT22;21870;42.812;74.628;2022-11-24T09:40:48;24.40;70.10
35746;DHT22;21870;42.812;74.628;2022-11-24T09:49:30;23.90;70.40
35746;DHT22;21870;42.812;74.628;2022-11-24T09:52:02;23.60;70.30
35746;DHT22;21870;42.812;74.628;2022-11-24T09:54:30;23.50;74.40
35746;DHT22;21870;42.812;74.628;2022-11-24T09:56:59;23.30;76.90
35746;DHT22;21870;42.812;74.628;2022-11-24T09:59:27;23.20;76.30
35746;DHT22;21870;42.812;74.628;2022-11-24T10:01:53;22.80;78.10
35746;DHT22;21870;42.812;74.628;2022-11-24T10:04:28;22.60;78.40
35746;DHT22;21870;42.812;74.628;2022-11-24T10:15:20;21.40;89.70
35746;DHT22;21870;42.812;74.628;2022-11-24T10:18:18;21.20;87.80
35746;DHT22;21870;42.812;74.628;2022-11-24T10:26:37;20.50;95.20
35746;DHT22;21870;42.812;74.628;2022-11-24T10:29:27;20.20;96.10
35746;DHT22;21870;42.812;74.628;2022-11-24T10:31:56;20.00;99.90
35746;DHT22;21870;42.812;74.628;2022-11-24T10:34:33;19.70;99.90
35746;DHT22;21870;42.812;74.628;2022-11-24T10:37:13;19.50;99.90
35746;DHT22;21870;42.812;74.628;2022-11-24T10:40:03;19.30;99.90
35746;DHT22;21870;42.812;74.628;2022-11-24T10:42:35;19.10;99.90
35746;DHT22;21870;42.812;74.628;2022-11-24T10:45:16;19.00;99.90
35746;DHT22;21870;42.812;74.628;2022-11-24T10:47:43;18.80;99.90
35746;DHT22;21870;42.812;74.628;2022-11-24T10:50:20;18.70;99.90
35746;DHT22;21870;42.812;74.628;2022-11-24T10:55:18;18.30;99.90
35746;DHT22;21870;42.812;74.628;2022-11-24T10:57:44;18.10;99.90
35746;DHT22;21870;42.812;74.628;2022-11-24T11:02:48;18.10;99.90
35746;DHT22;21870;42.812;74.628;2022-11-24T11:08:21;17.80;99.90
35746;DHT22;21870;42.812;74.628;2022-11-24T11:11:27;17.70;99.90
35746;DHT22;21870;42.812;74.628;2022-11-24T11:13:56;17.60;99.90
35746;DHT22;21870;42.812;74.628;2022-11-24T11:16:29;17.40;99.90
35746;DHT22;21870;42.812;74.628;2022-11-24T11:18:57;17.40;99.90
35746;DHT22;21870;42.812;74.628;2022-11-24T11:21:34;17.30;99.90
35746;DHT22;21870;42.812;74.628;2022-11-24T11:24:13;17.20;99.90
35746;DHT22;21870;42.812;74.628;2022-11-24T11:26:40;17.00;99.90
35746;DHT22;21870;42.812;74.628;2022-11-24T11:31:34;16.60;99.90
35746;DHT22;21870;42.812;74.628;2022-11-24T11:34:13;16.40;99.90
35746;DHT22;21870;42.812;74.628;2022-11-24T11:36:45;16.40;99.90
35746;DHT22;21870;42.812;74.628;2022-11-24T11:41:59;16.00;99.90
35746;DHT22;21870;42.812;74.628;2022-11-24T11:47:11;15.60;99.90
35746;DHT22;21870;42.812;74.628;2022-11-24T11:49:38;15.50;99.90
35746;DHT22;21870;42.812;74.628;2022-11-24T11:52:30;15.30;99.90
35746;DHT22;21870;42.812;74.628;2022-11-24T11:55:21;15.20;99.90
35746;DHT22;21870;42.812;74.628;2022-11-24T12:15:33;14.90;99.90
35746;DHT22;21870;42.812;74.628;2022-11-24T12:20:50;14.80;99.90
35746;DHT22;21870;42.812;74.628;2022-11-24T12:24:08;14.70;99.90
35746;DHT22;21870;42.812;74.628;2022-11-24T12:34:39;14.30;99.90
35746;DHT22;21870;42.812;74.628;2022-11-24T12:37:20;14.20;99.90
35746;DHT22;21870;42.812;74.628;2022-11-24T12:40:11;14.30;99.90
35746;DHT22;21870;42.812;74.628;2022-11-24T12:48:46;14.30;99.90
35746;DHT22;21870;42.812;74.628;2022-11-24T12:51:17;14.30;99.90
35746;DHT22;21870;42.812;74.628;2022-11-24T12:53:48;14.30;99.90
35746;DHT22;21870;42.812;74.628;2022-11-24T12:56:22;14.30;99.90
35746;DHT22;21870;42.812;74.628;2022-11-24T13:01:38;14.30;99.90
35746;DHT22;21870;42.812;74.628;2022-11-24T13:06:48;14.40;99.90
35746;DHT22;21870;42.812;74.628;2022-11-24T13:09:16;14.40;99.90
35746;DHT22;21870;42.812;74.628;2022-11-24T13:11:49;14.40;99.90
35746;DHT22;21870;42.812;74.628;2022-11-24T13:14:30;14.30;99.90
35746;DHT22;21870;42.812;74.628;2022-11-24T13:17:03;14.30;99.90
35746;DHT22;21870;42.812;74.628;2022-11-24T13:19:47;14.30;99.90
35746;DHT22;21870;42.812;74.628;2022-11-24T13:22:20;14.30;99.90
35746;DHT22;21870;42.812;74.628;2022-11-24T13:25:24;14.40;99.90
35746;DHT22;21870;42.812;74.628;2022-11-24T13:27:50;14.30;99.90
35746;DHT22;21870;42.812;74.628;2022-11-24T13:35:38;14.40;99.90
35746;DHT22;21870;42.812;74.628;2022-11-24T13:41:07;14.40;99.90
35746;DHT22;21870;42.812;74.628;2022-11-24T13:43:33;14.40;99.90
35746;DHT22;21870;42.812;74.628;2022-11-24T13:46:00;14.30;99.90
35746;DHT22;21870;42.812;74.628;2022-11-24T13:53:35;14.10;99.90
35746;DHT22;21870;42.812;74.628;2022-11-24T13:58:38;14.20;99.90
35746;DHT22;21870;42.812;74.628;2022-11-24T14:12:10;14.50;99.00
35746;DHT22;21870;42.812;74.628;2022-11-24T14:14:37;14.50;98.50
35746;DHT22;21870;42.812;74.628;2022-11-24T14:17:11;14.60;98.60
35746;DHT22;21870;42.812;74.628;2022-11-24T14:19:40;14.60;98.40
35746;DHT22;21870;42.812;74.628;2022-11-24T14:22:39;14.70;97.20
35746;DHT22;21870;42.812;74.628;2022-11-24T14:25:39;14.70;97.10
35746;DHT22;21870;42.812;74.628;2022-11-24T14:28:25;14.80;97.00
35746;DHT22;21870;42.812;74.628;2022-11-24T14:31:17;14.80;96.50
35746;DHT22;21870;42.812;74.628;2022-11-24T14:33:44;14.90;96.70
35746;DHT22;21870;42.812;74.628;2022-11-24T14:36:14;14.90;96.80
35746;DHT22;21870;42.812;74.628;2022-11-24T14:38:41;14.90;96.50
35746;DHT22;21870;42.812;74.628;2022-11-24T14:41:24;14.80;96.70
35746;DHT22;21870;42.812;74.628;2022-11-24T14:46:37;14.80;96.30
35746;DHT22;21870;42.812;74.628;2022-11-24T14:49:03;14.90;96.10
35746;DHT22;21870;42.812;74.628;2022-11-24T14:51:33;14.90;95.60
35746;DHT22;21870;42.812;74.628;2022-11-24T14:54:05;15.00;95.40
35746;DHT22;21870;42.812;74.628;2022-11-24T14:56:34;15.00;95.30
35746;DHT22;21870;42.812;74.628;2022-11-24T14:59:01;15.00;95.40
35746;DHT22;21870;42.812;74.628;2022-11-24T15:06:47;15.10;93.50
35746;DHT22;21870;42.812;74.628;2022-11-24T15:09:33;15.20;93.10
35746;DHT22;21870;42.812;74.628;2022-11-24T15:12:09;15.30;92.90
35746;DHT22;21870;42.812;74.628;2022-11-24T15:14:51;15.30;93.20
35746;DHT22;21870;42.812;74.628;2022-11-24T15:17:21;15.20;92.80
35746;DHT22;21870;42.812;74.628;2022-11-24T15:19:51;15.30;92.80
35746;DHT22;21870;42.812;74.628;2022-11-24T15:22:43;15.30;92.30
35746;DHT22;21870;42.812;74.628;2022-11-24T15:25:29;15.40;92.10
35746;DHT22;21870;42.812;74.628;2022-11-24T15:27:56;15.40;91.60
35746;DHT22;21870;42.812;74.628;2022-11-24T15:30:22;15.50;91.40
35746;DHT22;21870;42.812;74.628;2022-11-24T15:32:58;15.50;91.10
35746;DHT22;21870;42.812;74.628;2022-11-24T15:35:27;15.60;91.20
35746;DHT22;21870;42.812;74.628;2022-11-24T15:37:53;15.60;91.20
35746;DHT22;21870;42.812;74.628;2022-11-24T15:40:20;15.60;91.30
35746;DHT22;21870;42.812;74.628;2022-11-24T15:42:51;15.50;91.80
35746;DHT22;21870;42.812;74.628;2022-11-24T15:45:18;15.40;93.30
35746;DHT22;21870;42.812;74.628;2022-11-24T15:47:44;15.30;94.10
35746;DHT22;21870;42.812;74.628;2022-11-24T15:50:11;15.20;94.10
35746;DHT22;21870;42.812;74.628;2022-11-24T15:52:37;15.10;94.30
35746;DHT22;21870;42.812;74.628;2022-11-24T15:55:04;15.00;94.80
35746;DHT22;21870;42.812;74.628;2022-11-24T15:57:33;15.00;93.70
35746;DHT22;21870;42.812;74.628;2022-11-24T15:59:59;15.00;94.70
35746;DHT22;21870;42.812;74.628;2022-11-24T16:02:25;15.00;94.30
35746;DHT22;21870;42.812;74.628;2022-11-24T16:04:54;14.90;94.00
35746;DHT22;21870;42.812;74.628;2022-11-24T16:07:21;15.00;94.30
35746;DHT22;21870;42.812;74.628;2022-11-24T16:09:47;14.90;93.80
35746;DHT22;21870;42.812;74.628;2022-11-24T16:12:13;14.80;93.60
35746;DHT22;21870;42.812;74.628;2022-11-24T16:14:40;14.80;93.90
35746;DHT22;21870;42.812;74.628;2022-11-24T16:17:06;14.80;95.40
35746;DHT22;21870;42.812;74.628;2022-11-24T16:19:32;14.70;94.40
35746;DHT22;21870;42.812;74.628;2022-11-24T16:21:58;14.70;93.90
35746;DHT22;21870;42.812;74.628;2022-11-24T16:24:24;14.70;95.20
35746;DHT22;21870;42.812;74.628;2022-11-24T16:26:50;14.70;96.80
35746;DHT22;21870;42.812;74.628;2022-11-24T16:29:16;14.60;95.70
35746;DHT22;21870;42.812;74.628;2022-11-24T16:31:42;14.60;96.80
35746;DHT22;21870;42.812;74.628;2022-11-24T16:34:09;14.50;97.70
35746;DHT22;21870;42.812;74.628;2022-11-24T16:36:35;14.50;97.90
35746;DHT22;21870;42.812;74.628;2022-11-24T16:39:01;14.30;99.90
35746;DHT22;21870;42.812;74.628;2022-11-24T16:41:27;14.10;97.90
35746;DHT22;21870;42.812;74.628;2022-11-24T16:43:53;14.00;98.10
35746;DHT22;21870;42.812;74.628;2022-11-24T16:46:20;14.00;96.60
35746;DHT22;21870;42.812;74.628;2022-11-24T16:48:49;14.10;95.90
35746;DHT22;21870;42.812;74.628;2022-11-24T16:51:17;14.10;96.10
35746;DHT22;21870;42.812;74.628;2022-11-24T16:53:44;14.20;96.10
35746;DHT22;21870;42.812;74.628;2022-11-24T16:56:10;14.20;96.40
35746;DHT22;21870;42.812;74.628;2022-11-24T16:58:38;14.10;96.50
35746;DHT22;21870;42.812;74.628;2022-11-24T17:01:06;14.10;95.70
35746;DHT22;21870;42.812;74.628;2022-11-24T17:03:32;14.10;96.20
35746;DHT22;21870;42.812;74.628;2022-11-24T17:06:00;14.10;96.30
35746;DHT22;21870;42.812;74.628;2022-11-24T17:08:30;14.10;95.90
35746;DHT22;21870;42.812;74.628;2022-11-24T17:10:57;14.10;95.70
35746;DHT22;21870;42.812;74.628;2022-11-24T17:13:23;14.10;95.90
35746;DHT22;21870;42.812;74.628;2022-11-24T17:15:49;14.00;97.00
35746;DHT22;21870;42.812;74.628;2022-11-24T17:18:15;13.90;96.70
35746;DHT22;21870;42.812;74.628;2022-11-24T17:20:41;14.00;94.90
35746;DHT22;21870;42.812;74.628;2022-11-24T17:23:07;14.10;95.70
35746;DHT22;21870;42.812;74.628;2022-11-24T17:25:33;14.10;96.10
35746;DHT22;21870;42.812;74.628;2022-11-24T17:27:59;14.00;97.30
35746;DHT22;21870;42.812;74.628;2022-11-24T17:30:25;13.90;98.20
35746;DHT22;21870;42.812;74.628;2022-11-24T17:32:51;13.90;95.70